Seawolf — WDE7235 — position and weather

sailwx.info

Track history (hours):
 
Tides and Currents Weather Stations Pressure Air Temp Water Temp Dewpoint Dewpoint Depression Visibility Wind Speed Wind Dir Waves Ship Positions

Oceanographic research ship Seawolf (United States)

Owner: School of Marine and Atmospheric Sciences, Stony Brook University, NY, Stony Brook, NY. More information available from US FCC via Universal Licensing System and Coast Guard Vessel Documentation Center.

Last reported at 2019-Aug-20 18:35 UTC. Time now 2019-Aug-24 09:09 UTC.
Position N 40°46' W 073°57'.

Length 24 m; draft 3.5 m.

Type: Other ship. MMSI: 367390740.

Date/timePositionNaut miles runAvg speedWind from/ knotsBaromVisibWave heightAir tempDewpointWater temp
2019-Aug-20 18:35N 40°46' W 073°57'1 7.9
2019-Aug-20 18:30N 40°45' W 073°58'4 7.7
2019-Aug-20 18:00N 40°42' W 074°00'4 8.7
2019-Aug-20 17:30N 40°38' W 074°03'5 9.4
2019-Aug-20 17:00N 40°33' W 074°01'27 3.6
2019-Aug-20 09:34N 40°06' W 074°03'0 0.0
2019-Aug-20 08:45N 40°06' W 074°03'0 0.0
2019-Aug-20 07:59N 40°06' W 074°03'0 0.1
2019-Aug-19 23:50N 40°06' W 074°02'1 2.6
2019-Aug-19 23:28N 40°06' W 074°01'3 6.8
2019-Aug-19 22:59N 40°09' W 073°59'5 0.5
2019-Aug-19 12:28N 40°13' W 073°55'2 3.9
2019-Aug-19 11:56N 40°14' W 073°57'1 2.3
2019-Aug-19 11:29N 40°14' W 073°58'1 2.8
2019-Aug-19 10:59N 40°13' W 073°59'3 6.9
2019-Aug-19 10:30N 40°10' W 073°60'4 8.2
2019-Aug-19 10:00N 40°06' W 074°02'1 0.1
2019-Aug-19 02:02N 40°06' W 074°03'0 0.0
2019-Aug-19 01:56N 40°06' W 074°03'2 0.7
2019-Aug-18 23:14N 40°05' W 074°01'16 4.1
2019-Aug-18 19:21N 39°49' W 073°58'3 7.3
2019-Aug-18 19:00N 39°47' W 073°57'1 2.5
2019-Aug-18 18:30N 39°45' W 073°58'3 3.4
2019-Aug-18 17:43N 39°43' W 073°58'1 4.5
2019-Aug-18 17:28N 39°42' W 073°58'1 2.2
2019-Aug-18 17:00N 39°41' W 073°58'1 1.7
2019-Aug-18 16:30N 39°40' W 073°57'2 4.7
2019-Aug-18 16:00N 39°38' W 073°56'2 2.9
2019-Aug-18 15:28N 39°36' W 073°56'3 5.6
2019-Aug-18 15:00N 39°34' W 073°55'5 4.8
2019-Aug-18 14:04N 39°29' W 073°56'0 4.0
2019-Aug-18 13:58N 39°29' W 073°56'24 4.4
2019-Aug-18 08:31N 39°23' W 074°25'0 0.0
2019-Aug-18 08:30N 39°23' W 074°25'0 0.0
2019-Aug-18 07:47N 39°23' W 074°25'0 0.0
2019-Aug-18 07:00N 39°23' W 074°25'0 0.0
2019-Aug-18 06:30N 39°23' W 074°25'0 0.0
2019-Aug-18 06:00N 39°23' W 074°25'0 0.0
2019-Aug-18 05:30N 39°23' W 074°25'0 0.0
2019-Aug-18 05:00N 39°23' W 074°25'0 0.0
2019-Aug-18 04:19N 39°23' W 074°25'0 0.0
2019-Aug-18 03:49N 39°23' W 074°25'0 0.0
2019-Aug-18 03:26N 39°23' W 074°25'0 0.0
2019-Aug-18 02:58N 39°23' W 074°25'0 0.0
2019-Aug-18 02:30N 39°23' W 074°25'0 0.0
2019-Aug-18 01:41N 39°23' W 074°25'0 0.0
2019-Aug-18 01:23N 39°23' W 074°25'0 0.0
2019-Aug-18 00:56N 39°23' W 074°25'1 0.6
2019-Aug-17 23:44N 39°22' W 074°25'23 2.0
2019-Aug-17 12:11N 39°04' W 074°42'1 4.1
2019-Aug-17 11:54N 39°05' W 074°43'10 0.9
2019-Aug-17 00:55N 38°57' W 074°53'4 1.0
2019-Aug-16 20:30N 38°55' W 074°48'5 0.6
2019-Aug-16 11:47N 38°54' W 074°54'4 0.4
2019-Aug-16 02:49N 38°57' W 074°52'9 8.1
2019-Aug-16 01:44N 38°49' W 074°48'21 1.8
2019-Aug-15 14:10N 39°06' W 074°32'4 6.7
2019-Aug-15 13:38N 39°08' W 074°36'1 2.7
2019-Aug-15 13:27N 39°09' W 074°36'2 2.9
2019-Aug-15 12:52N 39°10' W 074°35'1 2.4
2019-Aug-15 12:28N 39°11' W 074°34'5 7.3
2019-Aug-15 11:45N 39°15' W 074°31'0 1.9
2019-Aug-15 11:30N 39°16' W 074°31'1 2.9
2019-Aug-15 10:59N 39°17' W 074°30'6 7.5
2019-Aug-15 10:08N 39°22' W 074°24'1 2.9
2019-Aug-15 09:45N 39°23' W 074°25'0 0.0
2019-Aug-15 09:27N 39°23' W 074°25'0 0.0
2019-Aug-15 09:00N 39°23' W 074°25'0 0.0
2019-Aug-15 08:30N 39°23' W 074°25'0 0.0
2019-Aug-15 07:49N 39°23' W 074°25'0 0.0
2019-Aug-15 07:24N 39°23' W 074°25'0 0.0
2019-Aug-15 03:09N 39°23' W 074°25'0 0.0
2019-Aug-15 02:43N 39°23' W 074°25'0 0.3
2019-Aug-15 01:00N 39°23' W 074°25'11 3.0
2019-Aug-14 21:20N 39°31' W 074°15'1 2.8
2019-Aug-14 20:57N 39°32' W 074°14'2 4.8
2019-Aug-14 20:29N 39°33' W 074°12'4 8.7
2019-Aug-14 20:00N 39°37' W 074°09'4 8.4
2019-Aug-14 19:30N 39°41' W 074°07'3 5.8
2019-Aug-14 18:59N 39°43' W 074°05'1 3.0
2019-Aug-14 18:30N 39°45' W 074°04'1 1.7
2019-Aug-14 18:00N 39°44' W 074°04'2 4.1
2019-Aug-14 17:28N 39°42' W 074°02'1 2.4
2019-Aug-14 17:00N 39°43' W 074°02'1 2.0
2019-Aug-14 16:30N 39°44' W 074°03'3 5.3
2019-Aug-14 15:59N 39°46' W 074°05'1 2.3
2019-Aug-14 15:30N 39°48' W 074°05'1 1.9
2019-Aug-14 15:00N 39°49' W 074°05'0 0.6
2019-Aug-14 14:30N 39°49' W 074°05'1 1.9
2019-Aug-14 13:58N 39°50' W 074°05'1 3.1
2019-Aug-14 13:30N 39°51' W 074°05'3 6.5
2019-Aug-14 12:59N 39°54' W 074°03'2 4.3
2019-Aug-14 12:30N 39°56' W 074°01'1 3.0
2019-Aug-14 12:00N 39°58' W 074°01'5 4.9
2019-Aug-14 10:57N 40°03' W 074°02'2 2.8
2019-Aug-14 10:13N 40°05' W 074°01'28 1.9
2019-Aug-13 19:17N 40°33' W 074°01'310.4
2019-Aug-13 19:00N 40°36' W 074°02'4 9.0
2019-Aug-13 18:30N 40°40' W 074°01'510.2
2019-Aug-13 18:00N 40°45' W 073°58'610.2
2019-Aug-13 17:26N 40°48' W 073°52'  
Track history (hours):
 
Tides and Currents Weather Stations Pressure Air Temp Water Temp Dewpoint Dewpoint Depression Visibility Wind Speed Wind Dir Waves Ship Positions

Oceanographic research ship Seawolf (United States)

Owner: School of Marine and Atmospheric Sciences, Stony Brook University, NY, Stony Brook, NY. More information available from US FCC via Universal Licensing System and Coast Guard Vessel Documentation Center.

Last reported at 2019-Aug-20 18:35 UTC. Time now 2019-Aug-24 09:09 UTC.
Position N 40°46' W 073°57'.

Length 24 m; draft 3.5 m.

Type: Other ship. MMSI: 367390740.

Date/timePositionNaut miles runAvg speedWind from/ knotsBaromVisibWave heightAir tempDewpointWater temp
2019-Aug-20 18:35N 40°46' W 073°57'1 7.9
2019-Aug-20 18:30N 40°45' W 073°58'4 7.7
2019-Aug-20 18:00N 40°42' W 074°00'4 8.7
2019-Aug-20 17:30N 40°38' W 074°03'5 9.4
2019-Aug-20 17:00N 40°33' W 074°01'27 3.6
2019-Aug-20 09:34N 40°06' W 074°03'0 0.0
2019-Aug-20 08:45N 40°06' W 074°03'0 0.0
2019-Aug-20 07:59N 40°06' W 074°03'0 0.1
2019-Aug-19 23:50N 40°06' W 074°02'1 2.6
2019-Aug-19 23:28N 40°06' W 074°01'3 6.8
2019-Aug-19 22:59N 40°09' W 073°59'5 0.5
2019-Aug-19 12:28N 40°13' W 073°55'2 3.9
2019-Aug-19 11:56N 40°14' W 073°57'1 2.3
2019-Aug-19 11:29N 40°14' W 073°58'1 2.8
2019-Aug-19 10:59N 40°13' W 073°59'3 6.9
2019-Aug-19 10:30N 40°10' W 073°60'4 8.2
2019-Aug-19 10:00N 40°06' W 074°02'1 0.1
2019-Aug-19 02:02N 40°06' W 074°03'0 0.0
2019-Aug-19 01:56N 40°06' W 074°03'2 0.7
2019-Aug-18 23:14N 40°05' W 074°01'16 4.1
2019-Aug-18 19:21N 39°49' W 073°58'3 7.3
2019-Aug-18 19:00N 39°47' W 073°57'1 2.5
2019-Aug-18 18:30N 39°45' W 073°58'3 3.4
2019-Aug-18 17:43N 39°43' W 073°58'1 4.5
2019-Aug-18 17:28N 39°42' W 073°58'1 2.2
2019-Aug-18 17:00N 39°41' W 073°58'1 1.7
2019-Aug-18 16:30N 39°40' W 073°57'2 4.7
2019-Aug-18 16:00N 39°38' W 073°56'2 2.9
2019-Aug-18 15:28N 39°36' W 073°56'3 5.6
2019-Aug-18 15:00N 39°34' W 073°55'5 4.8
2019-Aug-18 14:04N 39°29' W 073°56'0 4.0
2019-Aug-18 13:58N 39°29' W 073°56'24 4.4
2019-Aug-18 08:31N 39°23' W 074°25'0 0.0
2019-Aug-18 08:30N 39°23' W 074°25'0 0.0
2019-Aug-18 07:47N 39°23' W 074°25'0 0.0
2019-Aug-18 07:00N 39°23' W 074°25'0 0.0
2019-Aug-18 06:30N 39°23' W 074°25'0 0.0
2019-Aug-18 06:00N 39°23' W 074°25'0 0.0
2019-Aug-18 05:30N 39°23' W 074°25'0 0.0
2019-Aug-18 05:00N 39°23' W 074°25'0 0.0
2019-Aug-18 04:19N 39°23' W 074°25'0 0.0
2019-Aug-18 03:49N 39°23' W 074°25'0 0.0
2019-Aug-18 03:26N 39°23' W 074°25'0 0.0
2019-Aug-18 02:58N 39°23' W 074°25'0 0.0
2019-Aug-18 02:30N 39°23' W 074°25'0 0.0
2019-Aug-18 01:41N 39°23' W 074°25'0 0.0
2019-Aug-18 01:23N 39°23' W 074°25'0 0.0
2019-Aug-18 00:56N 39°23' W 074°25'1 0.6
2019-Aug-17 23:44N 39°22' W 074°25'23 2.0
2019-Aug-17 12:11N 39°04' W 074°42'1 4.1
2019-Aug-17 11:54N 39°05' W 074°43'10 0.9
2019-Aug-17 00:55N 38°57' W 074°53'4 1.0
2019-Aug-16 20:30N 38°55' W 074°48'5 0.6
2019-Aug-16 11:47N 38°54' W 074°54'4 0.4
2019-Aug-16 02:49N 38°57' W 074°52'9 8.1
2019-Aug-16 01:44N 38°49' W 074°48'21 1.8
2019-Aug-15 14:10N 39°06' W 074°32'4 6.7
2019-Aug-15 13:38N 39°08' W 074°36'1 2.7
2019-Aug-15 13:27N 39°09' W 074°36'2 2.9
2019-Aug-15 12:52N 39°10' W 074°35'1 2.4
2019-Aug-15 12:28N 39°11' W 074°34'5 7.3
2019-Aug-15 11:45N 39°15' W 074°31'0 1.9
2019-Aug-15 11:30N 39°16' W 074°31'1 2.9
2019-Aug-15 10:59N 39°17' W 074°30'6 7.5
2019-Aug-15 10:08N 39°22' W 074°24'1 2.9
2019-Aug-15 09:45N 39°23' W 074°25'0 0.0
2019-Aug-15 09:27N 39°23' W 074°25'0 0.0
2019-Aug-15 09:00N 39°23' W 074°25'0 0.0
2019-Aug-15 08:30N 39°23' W 074°25'0 0.0
2019-Aug-15 07:49N 39°23' W 074°25'0 0.0
2019-Aug-15 07:24N 39°23' W 074°25'0 0.0
2019-Aug-15 03:09N 39°23' W 074°25'0 0.0
2019-Aug-15 02:43N 39°23' W 074°25'0 0.3
2019-Aug-15 01:00N 39°23' W 074°25'11 3.0
2019-Aug-14 21:20N 39°31' W 074°15'1 2.8
2019-Aug-14 20:57N 39°32' W 074°14'2 4.8
2019-Aug-14 20:29N 39°33' W 074°12'4 8.7
2019-Aug-14 20:00N 39°37' W 074°09'4 8.4
2019-Aug-14 19:30N 39°41' W 074°07'3 5.8
2019-Aug-14 18:59N 39°43' W 074°05'1 3.0
2019-Aug-14 18:30N 39°45' W 074°04'1 1.7
2019-Aug-14 18:00N 39°44' W 074°04'2 4.1
2019-Aug-14 17:28N 39°42' W 074°02'1 2.4
2019-Aug-14 17:00N 39°43' W 074°02'1 2.0
2019-Aug-14 16:30N 39°44' W 074°03'3 5.3
2019-Aug-14 15:59N 39°46' W 074°05'1 2.3
2019-Aug-14 15:30N 39°48' W 074°05'1 1.9
2019-Aug-14 15:00N 39°49' W 074°05'0 0.6
2019-Aug-14 14:30N 39°49' W 074°05'1 1.9
2019-Aug-14 13:58N 39°50' W 074°05'1 3.1
2019-Aug-14 13:30N 39°51' W 074°05'3 6.5
2019-Aug-14 12:59N 39°54' W 074°03'2 4.3
2019-Aug-14 12:30N 39°56' W 074°01'1 3.0
2019-Aug-14 12:00N 39°58' W 074°01'5 4.9
2019-Aug-14 10:57N 40°03' W 074°02'2 2.8
2019-Aug-14 10:13N 40°05' W 074°01'28 1.9
2019-Aug-13 19:17N 40°33' W 074°01'310.4
2019-Aug-13 19:00N 40°36' W 074°02'4 9.0
2019-Aug-13 18:30N 40°40' W 074°01'510.2
2019-Aug-13 18:00N 40°45' W 073°58'610.2
2019-Aug-13 17:26N 40°48' W 073°52'  

Dump ship's entire track history